Etusivu
METAR-TAF:

METAR-TAF

Lentoasemat :

Mitiga International Airport

Tripoli, Libya

Leveyspiiri: 32-54N, Pituuspiiri: 13-17E, korkeus merenpinnasta: 11 m

Tämänhetkinen sää

Tämä raportti tehtiin 15 minuuttia sitten, kello 20.55 UTC
Tuuli 11 kn idästä/kaakosta
Lämpötila 24°C
Kosteus 74%
Ilmanpaine 1015 hPa
Näkyvyys: 7000 m
selkeää

METAR: HLLM 162055Z 11011KT 7000 SKC 24/19 Q1015

Aika: 23:10 (21:10 UTC)

Sääennuste

Tämä raportti tehtiin 4 tuntia ja 10 minuuttia sitten, kello 17.00 UTC
Ennuste voimassa 16. päivästä klo 18 UTC - 17. päivään klo 18 UTC
Tuuli 12 kn idästä/kaakosta
Näkyvyys: 8000 m

TAF: HLLM 161700Z 1618/1718 06012KT 8000 NSC BECMG1702/1704 12012KT

Säähavainnot ja -ennusteet yli 4000 lentoasemalta (METAR- ja TAF-raportit).

Käytössä olevat sääasemat on merkitty karttaan keltaisilla ja punaisilla pisteillä.

Aseta hiiri pisteen päälle nähdäksesi sääaseman nimen.

Klikkaa sitten nähdäksesi säähavainnot ja -ennusteet.

Kartan vaihtaminen: klikkaa mustalla rastilla varustettuja vihreitä pisteitä, niin voit zoomata sisään; viivalla varustettua vihreää pistettä, niin voit zoomata ulos tai vihreitä nuolia, niin pääset viereisille kartoille.


METAR-TAF: